createdAt,value
2022-09-14T00:00:15.921Z,1.20
2022-09-14T00:02:46.663Z,1.30
2022-09-14T00:05:14.794Z,1.10
2022-09-14T00:07:42.645Z,1.20
2022-09-14T00:10:11.093Z,1.20
2022-09-14T00:12:39.059Z,1.33
2022-09-14T00:15:07.755Z,1.23
2022-09-14T00:17:35.588Z,1.30
2022-09-14T00:20:05.367Z,1.20
2022-09-14T00:22:33.233Z,1.20
2022-09-14T00:25:01.091Z,1.17
2022-09-14T00:27:28.986Z,1.30
2022-09-14T00:29:56.834Z,1.17
2022-09-14T00:32:24.690Z,1.20
2022-09-14T00:34:52.533Z,1.30
2022-09-14T00:37:21.736Z,1.13
2022-09-14T00:39:50.319Z,1.30
2022-09-14T00:42:19.397Z,1.40
2022-09-14T00:45:08.153Z,1.20
2022-09-14T00:47:36.039Z,1.27
2022-09-14T00:50:04.772Z,1.30
2022-09-14T00:52:35.750Z,1.50
2022-09-14T00:55:05.385Z,1.10
2022-09-14T00:57:37.168Z,1.30
2022-09-14T01:00:15.634Z,1.33
2022-09-14T01:02:43.533Z,1.40
2022-09-14T01:05:11.629Z,1.13
2022-09-14T01:07:57.565Z,1.10
2022-09-14T01:10:32.533Z,1.40
2022-09-14T01:13:07.661Z,1.20
2022-09-14T01:15:40.223Z,1.30
2022-09-14T01:18:09.650Z,1.30
2022-09-14T01:20:39.663Z,1.30
2022-09-14T01:23:10.889Z,1.20
2022-09-14T01:25:51.387Z,1.13
2022-09-14T01:28:22.762Z,1.20
2022-09-14T01:30:50.605Z,1.10
2022-09-14T01:33:20.509Z,1.20
2022-09-14T01:35:50.838Z,1.20
2022-09-14T01:38:20.255Z,1.23
2022-09-14T01:40:49.219Z,1.10
2022-09-14T01:43:20.854Z,1.33
2022-09-14T01:45:50.231Z,1.13
2022-09-14T01:48:19.297Z,1.10
2022-09-14T01:50:48.241Z,1.30
2022-09-14T01:53:17.676Z,1.40
2022-09-14T01:55:47.096Z,1.20
2022-09-14T01:58:17.004Z,1.30
2022-09-14T02:00:47.390Z,1.30
2022-09-14T02:03:16.981Z,1.10
2022-09-14T02:05:49.816Z,1.03
2022-09-14T02:08:17.663Z,1.20
2022-09-14T02:10:45.499Z,1.30
2022-09-14T02:13:16.245Z,1.17
2022-09-14T02:15:44.077Z,1.13
2022-09-14T02:18:13.373Z,1.10
2022-09-14T02:20:42.976Z,1.30
2022-09-14T02:23:10.852Z,1.10
2022-09-14T02:25:41.188Z,1.10
2022-09-14T02:28:09.063Z,1.10
2022-09-14T02:30:41.011Z,1.13
2022-09-14T02:33:12.244Z,0.93
2022-09-14T02:35:42.686Z,1.10
2022-09-14T02:38:14.202Z,1.13
2022-09-14T02:40:44.099Z,1.30
2022-09-14T02:43:17.942Z,1.27
2022-09-14T02:45:50.437Z,1.20
2022-09-14T02:48:20.954Z,1.30
2022-09-14T02:50:52.177Z,1.20
2022-09-14T02:53:22.739Z,1.10
2022-09-14T02:55:52.544Z,1.10
2022-09-14T02:58:20.375Z,1.20
2022-09-14T03:00:50.456Z,2.37
2022-09-14T03:03:19.295Z,1.10
2022-09-14T03:05:47.516Z,1.20
2022-09-14T03:08:16.803Z,1.20
2022-09-14T03:10:44.828Z,1.03
2022-09-14T03:13:12.905Z,1.20
2022-09-14T03:15:41.372Z,1.00
2022-09-14T03:18:14.055Z,1.10
2022-09-14T03:20:42.614Z,1.20
2022-09-14T03:23:11.083Z,1.20
2022-09-14T03:25:41.295Z,1.00
2022-09-14T03:28:09.323Z,1.10
2022-09-14T03:30:37.223Z,0.90
2022-09-14T03:33:05.063Z,1.10
2022-09-14T03:35:33.171Z,1.17
2022-09-14T03:38:02.976Z,1.30
2022-09-14T03:40:31.014Z,1.03
2022-09-14T03:43:00.309Z,1.23
2022-09-14T03:45:28.174Z,2.20
2022-09-14T03:47:56.043Z,1.80
2022-09-14T03:50:23.922Z,3.40
2022-09-14T03:52:51.794Z,3.67
2022-09-14T03:55:20.150Z,3.80
2022-09-14T03:57:47.989Z,4.17
2022-09-14T04:00:17.755Z,4.63
2022-09-14T04:02:46.272Z,3.57
2022-09-14T04:05:14.942Z,5.17
2022-09-14T04:07:44.977Z,5.33
2022-09-14T04:10:12.853Z,5.23
2022-09-14T04:12:40.726Z,3.63
2022-09-14T04:15:08.997Z,9.77
2022-09-14T04:17:38.281Z,3.87
2022-09-14T04:20:06.954Z,4.23
2022-09-14T04:22:34.965Z,5.93
2022-09-14T04:25:02.812Z,5.07
2022-09-14T04:27:31.305Z,5.13
2022-09-14T04:29:59.155Z,4.23
2022-09-14T04:32:29.732Z,5.53
2022-09-14T04:35:02.833Z,4.43
2022-09-14T04:37:32.238Z,4.20
2022-09-14T04:40:00.124Z,4.03
2022-09-14T04:42:28.081Z,6.07
2022-09-14T04:44:55.905Z,3.60
2022-09-14T04:47:23.742Z,5.03
2022-09-14T04:49:51.867Z,5.83
2022-09-14T04:52:21.945Z,5.07
2022-09-14T04:54:49.789Z,4.10
2022-09-14T04:57:17.615Z,5.50
2022-09-14T04:59:45.523Z,4.67
2022-09-14T05:02:13.436Z,5.43
2022-09-14T05:04:42.485Z,3.33
2022-09-14T05:07:10.358Z,4.47
2022-09-14T05:09:39.802Z,3.80
2022-09-14T05:12:08.300Z,3.83
2022-09-14T05:14:36.162Z,4.67
2022-09-14T05:17:04.483Z,4.40
2022-09-14T05:19:32.487Z,4.70
2022-09-14T05:22:00.345Z,3.17
2022-09-14T05:24:28.595Z,4.40
2022-09-14T05:27:00.588Z,3.23
2022-09-14T05:29:31.733Z,3.23
2022-09-14T05:31:59.686Z,3.77
2022-09-14T05:34:27.559Z,6.10
2022-09-14T05:36:55.436Z,3.20
2022-09-14T05:39:24.874Z,3.03
2022-09-14T05:41:52.866Z,4.70
2022-09-14T05:44:22.270Z,3.17
2022-09-14T05:46:50.160Z,3.23
2022-09-14T05:49:18.049Z,3.30
2022-09-14T05:51:45.901Z,2.73
2022-09-14T05:54:13.733Z,3.00
2022-09-14T05:56:41.592Z,3.20
2022-09-14T05:59:10.730Z,3.03
2022-09-14T06:01:40.277Z,3.47
2022-09-14T06:04:08.142Z,3.10
2022-09-14T06:06:35.988Z,3.53
2022-09-14T06:09:03.825Z,2.93
2022-09-14T06:11:32.627Z,3.13
2022-09-14T06:14:00.536Z,2.90
2022-09-14T06:16:28.695Z,2.63
2022-09-14T06:18:58.770Z,2.90
2022-09-14T06:21:29.546Z,2.87
2022-09-14T06:23:57.419Z,2.97
2022-09-14T06:26:25.453Z,2.70
2022-09-14T06:28:53.489Z,3.23
2022-09-14T06:31:22.542Z,2.90
2022-09-14T06:33:51.645Z,2.90
2022-09-14T06:36:22.227Z,2.87
2022-09-14T06:38:50.665Z,3.10
2022-09-14T06:41:20.302Z,3.10
2022-09-14T06:43:48.660Z,2.67
2022-09-14T06:46:19.081Z,2.73
2022-09-14T06:48:48.055Z,2.67
2022-09-14T06:51:16.787Z,2.33
2022-09-14T06:53:46.174Z,2.63
2022-09-14T06:56:14.074Z,2.40
2022-09-14T06:58:41.935Z,2.40
2022-09-14T07:01:12.316Z,2.90
2022-09-14T07:03:40.317Z,2.30
2022-09-14T07:06:10.381Z,2.50
2022-09-14T07:08:38.842Z,2.33
2022-09-14T07:11:08.997Z,2.30
2022-09-14T07:13:37.102Z,2.70
2022-09-14T07:16:05.265Z,2.30
2022-09-14T07:18:34.023Z,2.47
2022-09-14T07:21:05.875Z,2.30
2022-09-14T07:23:33.875Z,2.83
2022-09-14T07:26:04.223Z,2.40
2022-09-14T07:28:33.509Z,2.63
2022-09-14T07:31:01.442Z,2.33
2022-09-14T07:33:29.506Z,2.70
2022-09-14T07:36:06.650Z,2.40
2022-09-14T07:38:51.138Z,2.50
2022-09-14T07:41:20.685Z,2.53
2022-09-14T07:43:51.167Z,2.20
2022-09-14T07:46:19.209Z,2.53
2022-09-14T07:48:47.166Z,2.33
2022-09-14T07:51:15.046Z,2.40
2022-09-14T07:53:43.540Z,2.50
2022-09-14T07:56:13.467Z,2.40
2022-09-14T07:58:42.030Z,2.20
2022-09-14T08:01:12.846Z,2.37
2022-09-14T08:03:41.021Z,2.20
2022-09-14T08:06:10.802Z,2.20
2022-09-14T08:08:39.706Z,2.57
2022-09-14T08:11:08.403Z,2.13
2022-09-14T08:13:36.284Z,2.20
2022-09-14T08:16:04.861Z,2.20
2022-09-14T08:18:35.153Z,2.40
2022-09-14T08:21:05.112Z,2.00
2022-09-14T08:23:33.019Z,2.07
2022-09-14T08:26:04.306Z,2.33
2022-09-14T08:28:32.130Z,2.03
2022-09-14T08:31:04.297Z,2.53
2022-09-14T08:33:34.284Z,2.40
2022-09-14T08:36:02.837Z,2.20
2022-09-14T08:38:30.651Z,2.27
2022-09-14T08:40:59.093Z,2.10
2022-09-14T08:43:26.973Z,2.20
2022-09-14T08:46:05.711Z,2.47
2022-09-14T08:48:38.398Z,2.30
2022-09-14T08:51:06.576Z,2.30
2022-09-14T08:53:34.536Z,2.20
2022-09-14T08:56:03.757Z,2.33
2022-09-14T08:58:42.646Z,2.00
2022-09-14T09:01:16.165Z,2.30
2022-09-14T09:04:04.967Z,2.00
2022-09-14T09:06:37.293Z,2.10
2022-09-14T09:09:08.533Z,2.30
2022-09-14T09:11:40.852Z,2.23
2022-09-14T09:14:18.392Z,2.40
2022-09-14T09:16:47.021Z,2.30
2022-09-14T09:19:19.307Z,2.13
2022-09-14T09:21:47.761Z,2.10
2022-09-14T09:24:21.575Z,2.10
2022-09-14T09:26:50.195Z,2.17
2022-09-14T09:29:18.022Z,2.20
2022-09-14T09:32:04.589Z,2.03
2022-09-14T09:35:01.163Z,2.40
2022-09-14T09:37:40.551Z,2.30
2022-09-14T09:40:15.693Z,1.83
2022-09-14T09:43:05.367Z,2.37
2022-09-14T09:45:57.382Z,2.20
2022-09-14T09:48:27.992Z,1.73
2022-09-14T09:51:04.934Z,2.10
2022-09-14T09:53:33.820Z,1.97
2022-09-14T09:56:01.697Z,2.00
2022-09-14T09:58:32.193Z,2.10
2022-09-14T10:01:01.186Z,1.93
2022-09-14T10:03:34.005Z,1.90
2022-09-14T10:06:08.309Z,2.13
2022-09-14T10:08:40.734Z,2.27
2022-09-14T10:11:25.237Z,2.00
2022-09-14T10:13:54.498Z,2.00
2022-09-14T10:16:22.385Z,2.00
2022-09-14T10:18:51.040Z,2.20
2022-09-14T10:21:20.730Z,1.90
2022-09-14T10:23:48.742Z,1.97
2022-09-14T10:26:35.466Z,2.27
2022-09-14T10:29:30.421Z,1.80
2022-09-14T10:32:00.937Z,1.80
2022-09-14T10:34:28.837Z,1.97
2022-09-14T10:37:01.565Z,2.00
2022-09-14T10:39:31.482Z,2.00
2022-09-14T10:42:02.003Z,2.10
2022-09-14T10:44:47.012Z,2.00
2022-09-14T10:47:32.935Z,1.70
2022-09-14T10:50:07.740Z,1.90
2022-09-14T10:52:40.587Z,1.97
2022-09-14T10:55:20.496Z,1.67
2022-09-14T10:57:52.844Z,1.77
2022-09-14T11:00:21.261Z,1.80
2022-09-14T11:02:56.339Z,1.93
2022-09-14T11:05:26.531Z,1.73
2022-09-14T11:08:01.893Z,1.70
2022-09-14T11:10:33.535Z,2.20
2022-09-14T11:13:16.415Z,1.70
2022-09-14T11:15:47.114Z,1.90
2022-09-14T11:18:21.206Z,1.90
2022-09-14T11:20:55.173Z,1.50
2022-09-14T11:23:30.268Z,1.77
2022-09-14T11:26:00.601Z,1.77
2022-09-14T11:28:30.114Z,1.83
2022-09-14T11:31:02.151Z,2.10
2022-09-14T11:33:32.593Z,2.00
2022-09-14T11:36:02.075Z,1.60
2022-09-14T11:38:33.854Z,1.80
2022-09-14T11:41:03.252Z,1.80
2022-09-14T11:43:32.912Z,1.70
2022-09-14T11:46:06.264Z,1.60
2022-09-14T11:48:42.786Z,1.67
2022-09-14T11:51:22.432Z,1.60
2022-09-14T11:53:51.684Z,1.90
2022-09-14T11:56:26.383Z,1.77
2022-09-14T11:58:55.564Z,2.00
2022-09-14T12:01:37.496Z,2.03
2022-09-14T12:04:15.909Z,1.67
2022-09-14T12:06:55.315Z,1.90
2022-09-14T12:09:42.590Z,1.77
2022-09-14T12:12:28.907Z,1.40
2022-09-14T12:15:00.665Z,1.80
2022-09-14T12:17:45.695Z,1.60
2022-09-14T12:20:44.253Z,1.70
2022-09-14T12:23:26.523Z,1.60
2022-09-14T12:26:05.646Z,1.50
2022-09-14T12:28:43.464Z,1.70
2022-09-14T12:31:14.077Z,1.63
2022-09-14T12:34:02.485Z,1.87
2022-09-14T12:37:00.103Z,1.87
2022-09-14T12:39:28.563Z,1.50
2022-09-14T12:42:06.068Z,1.60
2022-09-14T12:44:38.573Z,1.40
2022-09-14T12:47:40.125Z,1.57
2022-09-14T12:50:14.194Z,1.70
2022-09-14T12:52:46.480Z,1.50
2022-09-14T12:55:35.850Z,1.50
2022-09-14T12:58:08.427Z,1.70
2022-09-14T13:00:48.108Z,1.67
2022-09-14T13:03:23.347Z,1.60
2022-09-14T13:05:51.249Z,1.60
2022-09-14T13:08:22.098Z,1.80
2022-09-14T13:10:50.532Z,1.60
2022-09-14T13:13:22.285Z,1.60
2022-09-14T13:15:53.445Z,1.50
2022-09-14T13:18:32.460Z,2.00
2022-09-14T13:21:01.421Z,1.57
2022-09-14T13:23:31.214Z,1.50
2022-09-14T13:25:59.183Z,1.37
2022-09-14T13:28:31.136Z,1.60
2022-09-14T13:31:00.478Z,1.57
2022-09-14T13:33:29.269Z,1.20
2022-09-14T13:35:57.930Z,1.40
2022-09-14T13:38:27.445Z,1.50
2022-09-14T13:40:56.143Z,1.40
2022-09-14T13:43:24.076Z,1.50
2022-09-14T13:45:53.397Z,1.50
2022-09-14T13:48:21.367Z,1.50
2022-09-14T13:50:50.405Z,1.70
2022-09-14T13:53:37.108Z,1.40
2022-09-14T13:56:17.729Z,8.90
2022-09-14T13:58:45.714Z,3.13
2022-09-14T14:01:15.178Z,2.03
2022-09-14T14:03:47.638Z,1.73
2022-09-14T14:06:24.975Z,3.63
2022-09-14T14:08:54.755Z,1.67
2022-09-14T14:11:28.119Z,2.87
2022-09-14T14:13:56.007Z,1.47
2022-09-14T14:16:26.259Z,2.13
2022-09-14T14:18:54.796Z,3.50
2022-09-14T14:21:30.500Z,1.83
2022-09-14T14:24:17.563Z,2.47
2022-09-14T14:26:49.229Z,2.27
2022-09-14T14:29:17.665Z,2.93
2022-09-14T14:31:46.987Z,1.90
2022-09-14T14:34:19.938Z,2.10
2022-09-14T14:36:49.900Z,1.50
2022-09-14T14:39:19.459Z,1.90
2022-09-14T14:41:47.538Z,2.93
2022-09-14T14:44:18.040Z,1.97
2022-09-14T14:46:47.216Z,1.90
2022-09-14T14:49:15.604Z,1.90
2022-09-14T14:51:43.476Z,1.67
2022-09-14T14:54:11.381Z,1.90
2022-09-14T14:56:39.339Z,1.80
2022-09-14T14:59:16.638Z,2.00
2022-09-14T15:01:44.545Z,1.77
2022-09-14T15:04:13.761Z,1.57
2022-09-14T15:06:41.695Z,1.50
2022-09-14T15:09:11.256Z,1.90
2022-09-14T15:11:40.489Z,1.93
2022-09-14T15:14:10.411Z,2.27
2022-09-14T15:16:38.329Z,1.70
2022-09-14T15:19:06.337Z,1.67
2022-09-14T15:21:35.604Z,1.70
2022-09-14T15:24:03.885Z,1.70
2022-09-14T15:26:32.040Z,1.43
2022-09-14T15:28:59.918Z,1.70
2022-09-14T15:31:28.168Z,1.83
2022-09-14T15:33:56.160Z,1.57
2022-09-14T15:36:38.416Z,1.73
2022-09-14T15:39:06.438Z,1.50
2022-09-14T15:41:34.283Z,1.40
2022-09-14T15:44:03.675Z,1.73
2022-09-14T15:46:31.691Z,1.50
2022-09-14T15:48:59.770Z,1.53
2022-09-14T15:51:27.778Z,2.27
2022-09-14T15:53:57.015Z,1.50
2022-09-14T15:56:24.962Z,1.63
2022-09-14T15:58:52.861Z,1.70
2022-09-14T16:01:21.032Z,1.50
2022-09-14T16:03:48.986Z,1.63
2022-09-14T16:06:16.863Z,1.30
2022-09-14T16:08:44.839Z,2.17
2022-09-14T16:11:14.102Z,1.43
2022-09-14T16:13:42.004Z,1.70
2022-09-14T16:16:10.550Z,1.37
2022-09-14T16:18:38.645Z,1.30
2022-09-14T16:21:07.780Z,1.60
2022-09-14T16:23:36.371Z,1.93
2022-09-14T16:26:07.127Z,1.70
2022-09-14T16:28:36.316Z,1.90
2022-09-14T16:31:08.480Z,1.90
2022-09-14T16:33:40.164Z,1.63
2022-09-14T16:36:09.733Z,1.40
2022-09-14T16:38:37.692Z,1.63
2022-09-14T16:41:05.916Z,1.60
2022-09-14T16:43:34.055Z,1.40
2022-09-14T16:46:04.632Z,1.43
2022-09-14T16:48:32.862Z,1.50
2022-09-14T16:51:01.968Z,1.40
2022-09-14T16:53:30.034Z,1.50
2022-09-14T16:56:02.836Z,1.83
2022-09-14T16:58:30.728Z,1.80
2022-09-14T17:01:00.085Z,1.80
2022-09-14T17:03:31.739Z,1.80
2022-09-14T17:06:03.800Z,1.70
2022-09-14T17:08:32.333Z,1.77
2022-09-14T17:11:00.272Z,1.60
2022-09-14T17:13:28.366Z,1.80
2022-09-14T17:16:01.571Z,1.40
2022-09-14T17:18:30.860Z,1.40
2022-09-14T17:20:59.495Z,1.40
2022-09-14T17:23:27.471Z,1.40
2022-09-14T17:25:55.494Z,1.73
2022-09-14T17:28:24.442Z,1.80
2022-09-14T17:30:52.928Z,1.57
2022-09-14T17:33:20.944Z,2.17
2022-09-14T17:35:50.632Z,1.67
2022-09-14T17:38:18.698Z,1.80
2022-09-14T17:40:46.567Z,1.93
2022-09-14T17:43:14.665Z,1.40
2022-09-14T17:45:51.609Z,1.73
2022-09-14T17:48:19.694Z,1.70
2022-09-14T17:50:47.585Z,1.73
2022-09-14T17:53:16.862Z,1.50
2022-09-14T17:55:44.806Z,1.60
2022-09-14T17:58:16.417Z,1.70
2022-09-14T18:00:46.936Z,1.80
2022-09-14T18:03:14.923Z,1.60
2022-09-14T18:05:45.488Z,1.60
2022-09-14T18:08:13.442Z,1.67
2022-09-14T18:10:42.658Z,1.60
2022-09-14T18:13:10.574Z,1.80
2022-09-14T18:15:40.508Z,1.60
2022-09-14T18:18:08.470Z,1.67
2022-09-14T18:20:36.359Z,1.43
2022-09-14T18:23:04.237Z,1.47
2022-09-14T18:25:32.576Z,1.40
2022-09-14T18:28:01.898Z,1.40
2022-09-14T18:30:29.819Z,1.23
2022-09-14T18:32:57.671Z,1.30
2022-09-14T18:35:25.508Z,2.10
2022-09-14T18:37:53.386Z,1.57
2022-09-14T18:40:21.382Z,1.40
2022-09-14T18:42:49.257Z,1.70
2022-09-14T18:45:18.639Z,1.73
2022-09-14T18:47:46.479Z,1.70
2022-09-14T18:50:14.890Z,1.50
2022-09-14T18:52:42.770Z,1.60
2022-09-14T18:55:10.823Z,1.80
2022-09-14T18:57:39.489Z,1.60
2022-09-14T19:00:09.238Z,1.37
2022-09-14T19:02:38.918Z,1.70
2022-09-14T19:05:07.395Z,1.53
2022-09-14T19:07:36.616Z,1.60
2022-09-14T19:10:07.675Z,1.70
2022-09-14T19:12:37.922Z,1.97
2022-09-14T19:15:06.572Z,1.80
2022-09-14T19:17:34.435Z,1.90
2022-09-14T19:20:05.564Z,1.63
2022-09-14T19:22:33.589Z,2.10
2022-09-14T19:25:01.481Z,1.67
2022-09-14T19:27:29.703Z,1.80
2022-09-14T19:29:59.881Z,1.50
2022-09-14T19:32:27.761Z,1.40
2022-09-14T19:34:55.669Z,1.50
2022-09-14T19:37:24.941Z,1.40
2022-09-14T19:39:53.212Z,1.50
2022-09-14T19:42:24.295Z,1.57
2022-09-14T19:44:52.403Z,1.70
2022-09-14T19:47:20.265Z,1.30
2022-09-14T19:49:48.129Z,1.60
2022-09-14T19:52:16.024Z,1.57
2022-09-14T19:54:45.881Z,1.67
2022-09-14T19:57:13.824Z,1.67
2022-09-14T19:59:41.667Z,1.90
2022-09-14T20:02:10.987Z,1.63
2022-09-14T20:04:38.919Z,1.60
2022-09-14T20:07:07.691Z,1.63
2022-09-14T20:09:35.586Z,1.57
2022-09-14T20:12:05.155Z,1.80
2022-09-14T20:14:33.038Z,1.20
2022-09-14T20:17:00.909Z,1.47
2022-09-14T20:19:29.611Z,1.67
2022-09-14T20:21:57.543Z,1.67
2022-09-14T20:24:27.111Z,1.90
2022-09-14T20:26:56.038Z,1.50
2022-09-14T20:29:25.807Z,1.50
2022-09-14T20:31:53.693Z,1.40
2022-09-14T20:34:21.778Z,1.53
2022-09-14T20:36:49.994Z,1.53
2022-09-14T20:39:17.990Z,1.50
2022-09-14T20:41:45.878Z,1.50
2022-09-14T20:44:13.846Z,1.50
2022-09-14T20:46:43.959Z,1.50
2022-09-14T20:49:12.688Z,1.43
2022-09-14T20:51:41.066Z,1.40
2022-09-14T20:54:10.603Z,1.43
2022-09-14T20:56:38.638Z,1.60
2022-09-14T20:59:08.331Z,1.40
2022-09-14T21:01:37.115Z,1.40
2022-09-14T21:04:08.416Z,1.83
2022-09-14T21:06:36.887Z,1.43
2022-09-14T21:09:04.978Z,1.50
2022-09-14T21:11:32.949Z,1.57
2022-09-14T21:14:01.488Z,1.20
2022-09-14T21:16:30.157Z,1.30
2022-09-14T21:19:00.156Z,1.47
2022-09-14T21:21:29.447Z,1.57
2022-09-14T21:23:58.046Z,1.43
2022-09-14T21:26:26.248Z,1.50
2022-09-14T21:28:56.162Z,1.27
2022-09-14T21:31:24.501Z,1.27
2022-09-14T21:33:54.186Z,1.80
2022-09-14T21:36:23.162Z,1.30
2022-09-14T21:38:53.078Z,1.37
2022-09-14T21:41:21.523Z,1.27
2022-09-14T21:43:49.412Z,1.37
2022-09-14T21:46:18.324Z,1.40
2022-09-14T21:48:46.310Z,1.50
2022-09-14T21:51:17.965Z,1.20
2022-09-14T21:53:46.158Z,1.57
2022-09-14T21:56:15.429Z,1.30
2022-09-14T21:58:43.394Z,1.40
2022-09-14T22:01:11.633Z,1.53
2022-09-14T22:03:40.318Z,1.33
2022-09-14T22:06:09.068Z,1.40
2022-09-14T22:08:36.960Z,1.23
2022-09-14T22:11:05.606Z,1.47
2022-09-14T22:13:34.817Z,1.30
2022-09-14T22:16:08.011Z,1.30
2022-09-14T22:18:36.676Z,1.37
2022-09-14T22:21:04.982Z,1.10
2022-09-14T22:23:32.954Z,1.20
2022-09-14T22:26:00.915Z,1.40
2022-09-14T22:28:29.003Z,1.53
2022-09-14T22:30:58.429Z,1.20
2022-09-14T22:33:26.293Z,1.40
2022-09-14T22:35:54.720Z,1.30
2022-09-14T22:38:23.142Z,1.33
2022-09-14T22:40:55.610Z,1.30
2022-09-14T22:43:23.486Z,1.40
2022-09-14T22:45:51.383Z,1.20
2022-09-14T22:48:20.677Z,1.50
2022-09-14T22:50:51.749Z,1.20
2022-09-14T22:53:19.978Z,1.30
2022-09-14T22:55:47.936Z,1.33
2022-09-14T22:58:16.548Z,1.63
2022-09-14T23:00:44.634Z,1.40
2022-09-14T23:03:12.482Z,1.47
2022-09-14T23:05:42.352Z,1.37
2022-09-14T23:08:11.113Z,1.23
2022-09-14T23:10:39.098Z,1.10
2022-09-14T23:13:06.918Z,1.47
2022-09-14T23:15:38.429Z,1.50
2022-09-14T23:18:06.461Z,1.20
2022-09-14T23:20:36.750Z,1.20
2022-09-14T23:23:05.977Z,1.27
2022-09-14T23:25:34.678Z,1.33
2022-09-14T23:28:02.623Z,1.20
2022-09-14T23:30:31.134Z,1.30
2022-09-14T23:32:59.191Z,1.20
2022-09-14T23:35:27.219Z,1.30
2022-09-14T23:37:55.194Z,1.30
2022-09-14T23:40:24.574Z,1.30
2022-09-14T23:42:52.538Z,1.30
2022-09-14T23:45:20.593Z,1.50
2022-09-14T23:47:48.455Z,1.37
2022-09-14T23:50:16.524Z,1.37
2022-09-14T23:52:44.360Z,1.30
2022-09-14T23:55:12.225Z,1.40
2022-09-14T23:57:41.436Z,1.43
